sensor_id;sensor_type;location;lat;lon;timestamp;pressure;altitude;pressure_sealevel;temperature;humidity
50933;BME280;36921;49.006;9.292;2023-02-21T00:00:03;99320.13;;;2.04;100.00
50933;BME280;36921;49.006;9.292;2023-02-21T00:02:47;99331.53;;;2.06;100.00
50933;BME280;36921;49.006;9.292;2023-02-21T00:05:31;99318.16;;;1.96;100.00
50933;BME280;36921;49.006;9.292;2023-02-21T00:08:16;99315.75;;;1.93;100.00
50933;BME280;36921;49.006;9.292;2023-02-21T00:11:00;99312.13;;;1.94;100.00
50933;BME280;36921;49.006;9.292;2023-02-21T00:13:44;99323.63;;;1.94;100.00
50933;BME280;36921;49.006;9.292;2023-02-21T00:16:28;99306.31;;;1.79;100.00
50933;BME280;36921;49.006;9.292;2023-02-21T00:19:12;99307.53;;;1.75;100.00
50933;BME280;36921;49.006;9.292;2023-02-21T00:21:56;99318.94;;;1.77;100.00
50933;BME280;36921;49.006;9.292;2023-02-21T00:24:40;99303.75;;;1.68;100.00
50933;BME280;36921;49.006;9.292;2023-02-21T00:27:24;99317.78;;;1.70;100.00
50933;BME280;36921;49.006;9.292;2023-02-21T00:30:09;99307.66;;;1.64;100.00
50933;BME280;36921;49.006;9.292;2023-02-21T00:32:53;99311.03;;;1.66;100.00
50933;BME280;36921;49.006;9.292;2023-02-21T00:35:37;99315.09;;;1.70;100.00
50933;BME280;36921;49.006;9.292;2023-02-21T00:38:21;99318.75;;;1.69;100.00
50933;BME280;36921;49.006;9.292;2023-02-21T00:41:05;99298.66;;;1.65;100.00
50933;BME280;36921;49.006;9.292;2023-02-21T00:43:49;99309.31;;;1.65;100.00
50933;BME280;36921;49.006;9.292;2023-02-21T00:46:33;99304.53;;;1.59;100.00
50933;BME280;36921;49.006;9.292;2023-02-21T00:49:16;99319.03;;;1.66;100.00
50933;BME280;36921;49.006;9.292;2023-02-21T00:52:00;99309.75;;;1.60;100.00
50933;BME280;36921;49.006;9.292;2023-02-21T00:54:44;99317.59;;;1.52;100.00
50933;BME280;36921;49.006;9.292;2023-02-21T00:57:28;99299.97;;;1.40;100.00
50933;BME280;36921;49.006;9.292;2023-02-21T01:00:21;99317.13;;;1.47;100.00
50933;BME280;36921;49.006;9.292;2023-02-21T01:03:06;99300.94;;;1.39;100.00
50933;BME280;36921;49.006;9.292;2023-02-21T01:05:51;99295.56;;;1.29;100.00
50933;BME280;36921;49.006;9.292;2023-02-21T01:08:35;99298.22;;;1.29;100.00
50933;BME280;36921;49.006;9.292;2023-02-21T01:11:21;99284.97;;;1.18;100.00
50933;BME280;36921;49.006;9.292;2023-02-21T01:14:06;99296.22;;;1.21;100.00
50933;BME280;36921;49.006;9.292;2023-02-21T01:16:50;99298.25;;;1.08;100.00
50933;BME280;36921;49.006;9.292;2023-02-21T01:19:34;99286.22;;;1.14;100.00
50933;BME280;36921;49.006;9.292;2023-02-21T01:22:18;99299.53;;;1.14;100.00
50933;BME280;36921;49.006;9.292;2023-02-21T01:25:02;99301.59;;;1.10;100.00
50933;BME280;36921;49.006;9.292;2023-02-21T01:27:46;99296.44;;;1.08;100.00
50933;BME280;36921;49.006;9.292;2023-02-21T01:30:29;99271.09;;;0.93;100.00
50933;BME280;36921;49.006;9.292;2023-02-21T01:33:13;99300.13;;;0.96;100.00
50933;BME280;36921;49.006;9.292;2023-02-21T01:35:57;99310.84;;;1.06;100.00
50933;BME280;36921;49.006;9.292;2023-02-21T01:38:41;99314.44;;;1.16;100.00
50933;BME280;36921;49.006;9.292;2023-02-21T01:41:25;99300.44;;;1.24;100.00
50933;BME280;36921;49.006;9.292;2023-02-21T01:44:30;99301.84;;;1.28;100.00
50933;BME280;36921;49.006;9.292;2023-02-21T01:47:16;99290.25;;;1.29;100.00
50933;BME280;36921;49.006;9.292;2023-02-21T01:50:12;99296.03;;;1.34;100.00
50933;BME280;36921;49.006;9.292;2023-02-21T01:52:57;99286.66;;;1.19;100.00
50933;BME280;36921;49.006;9.292;2023-02-21T01:55:41;99271.72;;;1.06;100.00
50933;BME280;36921;49.006;9.292;2023-02-21T01:58:28;99286.34;;;1.12;100.00
50933;BME280;36921;49.006;9.292;2023-02-21T02:01:19;99284.22;;;1.06;100.00
50933;BME280;36921;49.006;9.292;2023-02-21T02:04:06;99290.56;;;1.15;100.00
50933;BME280;36921;49.006;9.292;2023-02-21T02:06:50;99284.97;;;1.18;100.00
50933;BME280;36921;49.006;9.292;2023-02-21T02:09:34;99292.66;;;1.11;100.00
50933;BME280;36921;49.006;9.292;2023-02-21T02:20:43;99293.56;;;1.00;100.00
50933;BME280;36921;49.006;9.292;2023-02-21T02:34:54;99279.34;;;0.90;100.00
50933;BME280;36921;49.006;9.292;2023-02-21T02:37:32;99272.66;;;0.75;100.00
50933;BME280;36921;49.006;9.292;2023-02-21T02:43:11;99273.28;;;0.88;100.00
50933;BME280;36921;49.006;9.292;2023-02-21T02:45:56;99270.44;;;0.80;100.00
50933;BME280;36921;49.006;9.292;2023-02-21T02:48:55;99276.28;;;0.74;100.00
50933;BME280;36921;49.006;9.292;2023-02-21T02:51:22;99269.22;;;0.63;100.00
50933;BME280;36921;49.006;9.292;2023-02-21T02:53:49;99276.75;;;0.58;100.00
50933;BME280;36921;49.006;9.292;2023-02-21T02:56:15;99270.78;;;0.65;100.00
50933;BME280;36921;49.006;9.292;2023-02-21T03:07:27;99279.00;;;0.62;100.00
50933;BME280;36921;49.006;9.292;2023-02-21T03:13:55;99273.66;;;0.62;100.00
50933;BME280;36921;49.006;9.292;2023-02-21T03:16:28;99270.31;;;0.60;100.00
50933;BME280;36921;49.006;9.292;2023-02-21T03:19:00;99269.59;;;0.58;100.00
50933;BME280;36921;49.006;9.292;2023-02-21T03:21:34;99276.97;;;0.55;100.00
50933;BME280;36921;49.006;9.292;2023-02-21T03:24:03;99277.38;;;0.50;100.00
50933;BME280;36921;49.006;9.292;2023-02-21T03:26:32;99278.88;;;0.64;100.00
50933;BME280;36921;49.006;9.292;2023-02-21T03:28:58;99282.63;;;0.61;100.00
50933;BME280;36921;49.006;9.292;2023-02-21T03:31:28;99284.72;;;0.58;100.00
50933;BME280;36921;49.006;9.292;2023-02-21T03:33:55;99273.94;;;0.59;100.00
50933;BME280;36921;49.006;9.292;2023-02-21T03:36:21;99280.56;;;0.65;100.00
50933;BME280;36921;49.006;9.292;2023-02-21T03:38:47;99278.75;;;0.65;100.00
50933;BME280;36921;49.006;9.292;2023-02-21T03:41:13;99284.31;;;0.62;100.00
50933;BME280;36921;49.006;9.292;2023-02-21T03:43:39;99285.19;;;0.63;100.00
50933;BME280;36921;49.006;9.292;2023-02-21T03:46:05;99279.13;;;0.61;100.00
50933;BME280;36921;49.006;9.292;2023-02-21T03:48:30;99283.47;;;0.62;100.00
50933;BME280;36921;49.006;9.292;2023-02-21T03:50:55;99282.38;;;0.64;100.00
50933;BME280;36921;49.006;9.292;2023-02-21T03:53:20;99267.50;;;0.62;100.00
50933;BME280;36921;49.006;9.292;2023-02-21T03:55:46;99276.41;;;0.72;100.00
50933;BME280;36921;49.006;9.292;2023-02-21T03:58:11;99272.44;;;0.67;100.00
50933;BME280;36921;49.006;9.292;2023-02-21T04:00:37;99283.38;;;0.63;100.00
50933;BME280;36921;49.006;9.292;2023-02-21T04:03:02;99277.06;;;0.64;100.00
50933;BME280;36921;49.006;9.292;2023-02-21T04:05:28;99275.38;;;0.63;100.00
50933;BME280;36921;49.006;9.292;2023-02-21T04:07:53;99280.34;;;0.57;100.00
50933;BME280;36921;49.006;9.292;2023-02-21T04:10:18;99273.34;;;0.56;100.00
50933;BME280;36921;49.006;9.292;2023-02-21T04:12:44;99272.00;;;0.61;100.00
50933;BME280;36921;49.006;9.292;2023-02-21T04:15:10;99268.75;;;0.58;100.00
50933;BME280;36921;49.006;9.292;2023-02-21T04:17:35;99275.56;;;0.72;100.00
50933;BME280;36921;49.006;9.292;2023-02-21T04:20:00;99285.75;;;0.67;100.00
50933;BME280;36921;49.006;9.292;2023-02-21T04:22:26;99273.66;;;0.62;100.00
50933;BME280;36921;49.006;9.292;2023-02-21T04:24:51;99265.22;;;0.57;100.00
50933;BME280;36921;49.006;9.292;2023-02-21T04:27:17;99262.44;;;0.59;100.00
50933;BME280;36921;49.006;9.292;2023-02-21T04:29:42;99258.22;;;0.56;100.00
50933;BME280;36921;49.006;9.292;2023-02-21T04:32:09;99260.69;;;0.48;100.00
50933;BME280;36921;49.006;9.292;2023-02-21T04:34:35;99266.25;;;0.45;100.00
50933;BME280;36921;49.006;9.292;2023-02-21T04:37:00;99251.88;;;0.36;100.00
50933;BME280;36921;49.006;9.292;2023-02-21T04:39:25;99253.97;;;0.33;100.00
50933;BME280;36921;49.006;9.292;2023-02-21T04:41:51;99251.56;;;0.30;100.00
50933;BME280;36921;49.006;9.292;2023-02-21T04:44:16;99264.03;;;0.18;100.00
50933;BME280;36921;49.006;9.292;2023-02-21T04:46:42;99255.47;;;0.14;100.00
50933;BME280;36921;49.006;9.292;2023-02-21T04:49:09;99256.78;;;0.20;100.00
50933;BME280;36921;49.006;9.292;2023-02-21T04:51:34;99246.81;;;0.01;100.00
50933;BME280;36921;49.006;9.292;2023-02-21T04:54:00;99259.06;;;-0.08;100.00
50933;BME280;36921;49.006;9.292;2023-02-21T04:56:25;99263.41;;;-0.07;100.00
50933;BME280;36921;49.006;9.292;2023-02-21T04:58:52;99260.59;;;0.06;100.00
50933;BME280;36921;49.006;9.292;2023-02-21T05:01:18;99258.44;;;0.00;100.00
50933;BME280;36921;49.006;9.292;2023-02-21T05:03:44;99258.81;;;-0.05;100.00
50933;BME280;36921;49.006;9.292;2023-02-21T05:06:09;99251.44;;;-0.12;100.00
50933;BME280;36921;49.006;9.292;2023-02-21T05:08:35;99252.41;;;-0.13;100.00
50933;BME280;36921;49.006;9.292;2023-02-21T05:11:00;99248.16;;;-0.05;100.00
50933;BME280;36921;49.006;9.292;2023-02-21T05:13:26;99253.81;;;0.02;100.00
50933;BME280;36921;49.006;9.292;2023-02-21T05:15:51;99248.97;;;0.07;100.00
50933;BME280;36921;49.006;9.292;2023-02-21T05:18:16;99251.38;;;0.10;100.00
50933;BME280;36921;49.006;9.292;2023-02-21T05:20:50;99251.63;;;0.07;100.00
50933;BME280;36921;49.006;9.292;2023-02-21T05:23:17;99245.47;;;0.07;100.00
50933;BME280;36921;49.006;9.292;2023-02-21T05:28:27;99244.47;;;0.08;100.00
50933;BME280;36921;49.006;9.292;2023-02-21T05:30:52;99242.19;;;0.14;100.00
50933;BME280;36921;49.006;9.292;2023-02-21T05:33:18;99250.06;;;0.05;100.00
50933;BME280;36921;49.006;9.292;2023-02-21T05:35:43;99242.13;;;-0.07;100.00
50933;BME280;36921;49.006;9.292;2023-02-21T05:38:11;99232.69;;;-0.11;100.00
50933;BME280;36921;49.006;9.292;2023-02-21T05:40:37;99230.19;;;-0.12;100.00
50933;BME280;36921;49.006;9.292;2023-02-21T05:43:02;99254.31;;;-0.04;100.00
50933;BME280;36921;49.006;9.292;2023-02-21T05:45:27;99252.78;;;-0.18;100.00
50933;BME280;36921;49.006;9.292;2023-02-21T05:47:53;99271.41;;;-0.18;100.00
50933;BME280;36921;49.006;9.292;2023-02-21T05:50:22;99263.78;;;-0.23;100.00
50933;BME280;36921;49.006;9.292;2023-02-21T05:52:48;99268.13;;;-0.22;100.00
50933;BME280;36921;49.006;9.292;2023-02-21T05:55:13;99271.53;;;-0.19;100.00
50933;BME280;36921;49.006;9.292;2023-02-21T05:57:39;99278.28;;;-0.15;100.00
50933;BME280;36921;49.006;9.292;2023-02-21T06:00:04;99273.56;;;-0.12;100.00
50933;BME280;36921;49.006;9.292;2023-02-21T06:02:30;99267.44;;;-0.24;100.00
50933;BME280;36921;49.006;9.292;2023-02-21T06:04:55;99271.19;;;-0.26;100.00
50933;BME280;36921;49.006;9.292;2023-02-21T06:07:21;99270.09;;;-0.35;100.00
50933;BME280;36921;49.006;9.292;2023-02-21T06:09:46;99280.09;;;-0.27;100.00
50933;BME280;36921;49.006;9.292;2023-02-21T06:12:12;99274.19;;;-0.19;100.00
50933;BME280;36921;49.006;9.292;2023-02-21T06:14:37;99277.56;;;-0.17;100.00
50933;BME280;36921;49.006;9.292;2023-02-21T06:17:03;99277.06;;;-0.11;100.00
50933;BME280;36921;49.006;9.292;2023-02-21T06:19:28;99267.28;;;-0.22;100.00
50933;BME280;36921;49.006;9.292;2023-02-21T06:21:53;99264.31;;;-0.29;100.00
50933;BME280;36921;49.006;9.292;2023-02-21T06:24:19;99267.44;;;-0.35;100.00
50933;BME280;36921;49.006;9.292;2023-02-21T06:26:44;99258.59;;;-0.24;100.00
50933;BME280;36921;49.006;9.292;2023-02-21T06:29:10;99262.22;;;-0.25;100.00
50933;BME280;36921;49.006;9.292;2023-02-21T06:31:36;99262.81;;;-0.22;100.00
50933;BME280;36921;49.006;9.292;2023-02-21T06:34:02;99260.84;;;-0.08;100.00
50933;BME280;36921;49.006;9.292;2023-02-21T06:36:28;99253.34;;;-0.03;100.00
50933;BME280;36921;49.006;9.292;2023-02-21T06:38:55;99253.06;;;0.11;100.00
50933;BME280;36921;49.006;9.292;2023-02-21T06:41:23;99247.25;;;0.17;100.00
50933;BME280;36921;49.006;9.292;2023-02-21T06:43:50;99253.03;;;0.22;100.00
50933;BME280;36921;49.006;9.292;2023-02-21T06:46:17;99254.94;;;0.32;100.00
50933;BME280;36921;49.006;9.292;2023-02-21T06:48:42;99248.31;;;0.47;100.00
50933;BME280;36921;49.006;9.292;2023-02-21T06:51:08;99240.75;;;0.63;100.00
50933;BME280;36921;49.006;9.292;2023-02-21T06:53:39;99241.78;;;0.72;100.00
50933;BME280;36921;49.006;9.292;2023-02-21T06:56:05;99242.97;;;0.79;100.00
50933;BME280;36921;49.006;9.292;2023-02-21T06:58:31;99245.88;;;0.97;100.00
50933;BME280;36921;49.006;9.292;2023-02-21T07:00:56;99246.38;;;1.43;100.00
50933;BME280;36921;49.006;9.292;2023-02-21T07:03:22;99238.00;;;2.66;100.00
50933;BME280;36921;49.006;9.292;2023-02-21T07:05:48;99218.69;;;4.91;100.00
50933;BME280;36921;49.006;9.292;2023-02-21T07:08:13;99208.22;;;6.25;100.00
50933;BME280;36921;49.006;9.292;2023-02-21T07:10:39;99204.53;;;6.84;100.00
50933;BME280;36921;49.006;9.292;2023-02-21T07:13:04;99202.19;;;7.61;100.00
50933;BME280;36921;49.006;9.292;2023-02-21T07:15:30;99198.56;;;9.74;100.00
50933;BME280;36921;49.006;9.292;2023-02-21T07:17:55;99192.50;;;10.38;100.00
50933;BME280;36921;49.006;9.292;2023-02-21T07:20:20;99191.19;;;10.77;97.39
50933;BME280;36921;49.006;9.292;2023-02-21T07:22:46;99200.63;;;11.16;84.16
50933;BME280;36921;49.006;9.292;2023-02-21T07:25:16;99203.69;;;12.11;74.58
50933;BME280;36921;49.006;9.292;2023-02-21T07:27:42;99200.47;;;12.62;68.69
50933;BME280;36921;49.006;9.292;2023-02-21T07:30:09;99200.63;;;12.34;70.77
50933;BME280;36921;49.006;9.292;2023-02-21T07:32:34;99199.41;;;12.43;67.44
50933;BME280;36921;49.006;9.292;2023-02-21T07:35:00;99196.53;;;12.84;64.87
50933;BME280;36921;49.006;9.292;2023-02-21T07:37:25;99189.00;;;13.13;65.25
50933;BME280;36921;49.006;9.292;2023-02-21T07:39:52;99198.41;;;12.90;64.61
50933;BME280;36921;49.006;9.292;2023-02-21T07:42:17;99202.16;;;13.36;63.03
50933;BME280;36921;49.006;9.292;2023-02-21T07:44:44;99201.41;;;14.32;59.28
50933;BME280;36921;49.006;9.292;2023-02-21T07:47:09;99205.66;;;14.21;60.17
50933;BME280;36921;49.006;9.292;2023-02-21T07:49:38;99200.63;;;14.18;61.17
50933;BME280;36921;49.006;9.292;2023-02-21T07:52:04;99197.59;;;14.78;58.58
50933;BME280;36921;49.006;9.292;2023-02-21T07:54:30;99204.75;;;15.85;54.82
50933;BME280;36921;49.006;9.292;2023-02-21T07:56:55;99197.03;;;16.00;55.08
50933;BME280;36921;49.006;9.292;2023-02-21T07:59:20;99200.31;;;15.28;55.07
50933;BME280;36921;49.006;9.292;2023-02-21T08:01:46;99199.38;;;15.34;53.76
50933;BME280;36921;49.006;9.292;2023-02-21T08:04:12;99198.44;;;16.81;51.51
50933;BME280;36921;49.006;9.292;2023-02-21T08:06:38;99189.69;;;17.38;49.52
50933;BME280;36921;49.006;9.292;2023-02-21T08:09:04;99187.13;;;18.36;47.46
50933;BME280;36921;49.006;9.292;2023-02-21T08:11:31;99198.63;;;18.78;45.44
50933;BME280;36921;49.006;9.292;2023-02-21T08:13:58;99195.13;;;18.37;46.37
50933;BME280;36921;49.006;9.292;2023-02-21T08:16:23;99193.63;;;18.18;46.00
50933;BME280;36921;49.006;9.292;2023-02-21T08:18:49;99198.00;;;19.05;44.72
50933;BME280;36921;49.006;9.292;2023-02-21T08:21:15;99202.94;;;18.46;45.68
50933;BME280;36921;49.006;9.292;2023-02-21T08:23:41;99198.22;;;19.37;44.88
50933;BME280;36921;49.006;9.292;2023-02-21T08:26:06;99195.38;;;20.32;43.03
50933;BME280;36921;49.006;9.292;2023-02-21T08:28:32;99192.63;;;21.13;41.34
50933;BME280;36921;49.006;9.292;2023-02-21T08:30:57;99186.22;;;21.87;41.24
50933;BME280;36921;49.006;9.292;2023-02-21T08:33:23;99198.31;;;21.01;41.95
50933;BME280;36921;49.006;9.292;2023-02-21T08:35:48;99204.81;;;21.60;40.43
50933;BME280;36921;49.006;9.292;2023-02-21T08:38:14;99206.91;;;21.42;41.63
50933;BME280;36921;49.006;9.292;2023-02-21T08:40:41;99203.16;;;21.64;40.75
50933;BME280;36921;49.006;9.292;2023-02-21T08:43:07;99205.34;;;21.24;41.71
50933;BME280;36921;49.006;9.292;2023-02-21T08:45:32;99203.44;;;20.93;41.73
50933;BME280;36921;49.006;9.292;2023-02-21T08:47:58;99192.00;;;21.81;39.23
50933;BME280;36921;49.006;9.292;2023-02-21T08:50:26;99196.38;;;22.40;39.54
50933;BME280;36921;49.006;9.292;2023-02-21T08:52:51;99182.94;;;22.74;38.74
50933;BME280;36921;49.006;9.292;2023-02-21T08:55:18;99178.44;;;22.32;39.35
50933;BME280;36921;49.006;9.292;2023-02-21T08:57:44;99175.81;;;23.24;38.04
50933;BME280;36921;49.006;9.292;2023-02-21T09:00:13;99178.47;;;22.47;39.09
50933;BME280;36921;49.006;9.292;2023-02-21T09:02:38;99185.16;;;23.59;37.80
50933;BME280;36921;49.006;9.292;2023-02-21T09:05:12;99175.53;;;24.26;37.05
50933;BME280;36921;49.006;9.292;2023-02-21T09:07:38;99165.53;;;23.60;37.71
50933;BME280;36921;49.006;9.292;2023-02-21T09:10:04;99179.91;;;23.52;38.28
50933;BME280;36921;49.006;9.292;2023-02-21T09:12:29;99187.91;;;23.64;37.89
50933;BME280;36921;49.006;9.292;2023-02-21T09:14:55;99185.34;;;25.32;36.68
50933;BME280;36921;49.006;9.292;2023-02-21T09:17:20;99192.97;;;24.77;36.04
50933;BME280;36921;49.006;9.292;2023-02-21T09:19:45;99183.34;;;26.39;33.99
50933;BME280;36921;49.006;9.292;2023-02-21T09:22:11;99180.81;;;26.18;34.19
50933;BME280;36921;49.006;9.292;2023-02-21T09:24:37;99163.81;;;26.25;33.81
50933;BME280;36921;49.006;9.292;2023-02-21T09:27:04;99179.81;;;25.32;35.59
50933;BME280;36921;49.006;9.292;2023-02-21T09:29:31;99168.94;;;25.06;35.70
50933;BME280;36921;49.006;9.292;2023-02-21T09:31:58;99159.25;;;26.34;35.49
50933;BME280;36921;49.006;9.292;2023-02-21T09:34:23;99167.06;;;25.89;35.82
50933;BME280;36921;49.006;9.292;2023-02-21T09:36:48;99154.44;;;26.21;35.20
50933;BME280;36921;49.006;9.292;2023-02-21T09:39:15;99154.63;;;28.71;32.80
50933;BME280;36921;49.006;9.292;2023-02-21T09:41:41;99149.41;;;28.42;32.79
50933;BME280;36921;49.006;9.292;2023-02-21T09:44:13;99148.94;;;29.53;31.55
50933;BME280;36921;49.006;9.292;2023-02-21T09:46:48;99160.22;;;29.70;30.50
50933;BME280;36921;49.006;9.292;2023-02-21T09:49:27;99156.84;;;27.83;32.10
50933;BME280;36921;49.006;9.292;2023-02-21T09:51:53;99165.19;;;26.84;33.53
50933;BME280;36921;49.006;9.292;2023-02-21T09:56:45;99161.25;;;28.11;31.89
50933;BME280;36921;49.006;9.292;2023-02-21T09:59:11;99158.28;;;27.34;31.90
50933;BME280;36921;49.006;9.292;2023-02-21T10:10:12;99154.31;;;26.69;31.80
50933;BME280;36921;49.006;9.292;2023-02-21T10:17:49;99156.50;;;26.72;32.74
50933;BME280;36921;49.006;9.292;2023-02-21T10:20:38;99154.78;;;27.88;31.10
50933;BME280;36921;49.006;9.292;2023-02-21T10:23:06;99155.00;;;29.46;29.05
50933;BME280;36921;49.006;9.292;2023-02-21T10:25:43;99142.00;;;29.41;29.27
50933;BME280;36921;49.006;9.292;2023-02-21T10:28:20;99145.63;;;28.38;30.35
50933;BME280;36921;49.006;9.292;2023-02-21T10:30:48;99151.94;;;29.25;30.01
50933;BME280;36921;49.006;9.292;2023-02-21T10:33:15;99137.63;;;28.23;30.36
50933;BME280;36921;49.006;9.292;2023-02-21T10:35:40;99143.50;;;29.79;28.98
50933;BME280;36921;49.006;9.292;2023-02-21T10:38:09;99148.41;;;29.73;28.60
50933;BME280;36921;49.006;9.292;2023-02-21T10:40:41;99150.13;;;28.11;29.88
50933;BME280;36921;49.006;9.292;2023-02-21T10:43:13;99132.84;;;28.51;29.86
50933;BME280;36921;49.006;9.292;2023-02-21T10:48:23;99135.50;;;27.92;31.00
50933;BME280;36921;49.006;9.292;2023-02-21T10:51:03;99135.34;;;29.20;29.90
50933;BME280;36921;49.006;9.292;2023-02-21T10:53:31;99140.78;;;28.80;30.26
50933;BME280;36921;49.006;9.292;2023-02-21T11:01:32;99129.59;;;30.71;28.34
50933;BME280;36921;49.006;9.292;2023-02-21T11:04:05;99115.28;;;29.40;28.37
50933;BME280;36921;49.006;9.292;2023-02-21T11:08:57;99116.41;;;29.39;29.21
50933;BME280;36921;49.006;9.292;2023-02-21T11:11:33;99121.69;;;29.41;28.94
50933;BME280;36921;49.006;9.292;2023-02-21T11:14:23;99114.25;;;29.27;28.96
50933;BME280;36921;49.006;9.292;2023-02-21T11:19:49;99107.69;;;27.92;29.42
50933;BME280;36921;49.006;9.292;2023-02-21T11:22:18;99098.69;;;28.23;29.70
50933;BME280;36921;49.006;9.292;2023-02-21T11:24:58;99098.88;;;30.71;27.63
50933;BME280;36921;49.006;9.292;2023-02-21T11:27:26;99097.00;;;30.14;28.18
50933;BME280;36921;49.006;9.292;2023-02-21T11:29:52;99086.06;;;30.26;27.63
50933;BME280;36921;49.006;9.292;2023-02-21T11:32:25;99081.13;;;30.93;26.76
50933;BME280;36921;49.006;9.292;2023-02-21T11:34:59;99072.69;;;29.97;27.82
50933;BME280;36921;49.006;9.292;2023-02-21T11:37:26;99065.59;;;29.82;28.22
50933;BME280;36921;49.006;9.292;2023-02-21T11:39:52;99060.84;;;31.05;27.33
50933;BME280;36921;49.006;9.292;2023-02-21T11:42:28;99060.25;;;28.25;28.84
50933;BME280;36921;49.006;9.292;2023-02-21T11:45:10;99067.63;;;27.93;29.64
50933;BME280;36921;49.006;9.292;2023-02-21T11:47:43;99058.34;;;29.24;28.68
50933;BME280;36921;49.006;9.292;2023-02-21T11:53:08;99053.34;;;30.70;27.33
50933;BME280;36921;49.006;9.292;2023-02-21T11:55:37;99039.09;;;30.28;27.58
50933;BME280;36921;49.006;9.292;2023-02-21T11:58:30;99032.31;;;29.95;27.53
50933;BME280;36921;49.006;9.292;2023-02-21T12:01:03;99045.75;;;29.04;28.49
50933;BME280;36921;49.006;9.292;2023-02-21T12:03:54;99029.78;;;28.65;29.38
50933;BME280;36921;49.006;9.292;2023-02-21T12:06:44;99027.19;;;29.31;29.23
50933;BME280;36921;49.006;9.292;2023-02-21T12:14:54;98999.38;;;28.09;30.11
50933;BME280;36921;49.006;9.292;2023-02-21T12:20:41;98997.22;;;27.42;31.23
50933;BME280;36921;49.006;9.292;2023-02-21T12:25:32;98987.91;;;28.47;29.31
50933;BME280;36921;49.006;9.292;2023-02-21T12:28:12;98986.31;;;27.60;31.07
50933;BME280;36921;49.006;9.292;2023-02-21T12:34:00;98971.31;;;28.19;30.71
50933;BME280;36921;49.006;9.292;2023-02-21T12:39:20;98961.06;;;29.71;29.22
50933;BME280;36921;49.006;9.292;2023-02-21T12:42:00;98960.44;;;28.54;29.09
50933;BME280;36921;49.006;9.292;2023-02-21T12:44:37;98949.06;;;27.97;29.62
50933;BME280;36921;49.006;9.292;2023-02-21T12:49:50;98941.19;;;28.67;29.17
50933;BME280;36921;49.006;9.292;2023-02-21T12:52:33;98937.53;;;26.84;31.53
50933;BME280;36921;49.006;9.292;2023-02-21T12:55:19;98939.41;;;27.44;31.56
50933;BME280;36921;49.006;9.292;2023-02-21T13:00:56;98927.31;;;28.44;29.65
50933;BME280;36921;49.006;9.292;2023-02-21T13:03:31;98922.34;;;28.41;29.76
50933;BME280;36921;49.006;9.292;2023-02-21T13:08:33;98908.56;;;28.98;29.79
50933;BME280;36921;49.006;9.292;2023-02-21T13:11:20;98901.81;;;28.51;29.66
50933;BME280;36921;49.006;9.292;2023-02-21T13:13:47;98900.16;;;29.38;28.48
50933;BME280;36921;49.006;9.292;2023-02-21T13:16:12;98896.59;;;28.58;29.27
50933;BME280;36921;49.006;9.292;2023-02-21T13:18:43;98891.97;;;27.13;29.96
50933;BME280;36921;49.006;9.292;2023-02-21T13:21:36;98893.84;;;25.78;31.26
50933;BME280;36921;49.006;9.292;2023-02-21T13:24:47;98879.88;;;26.21;32.50
50933;BME280;36921;49.006;9.292;2023-02-21T13:29:43;98866.91;;;29.51;28.63
50933;BME280;36921;49.006;9.292;2023-02-21T13:32:15;98873.41;;;27.86;29.68
50933;BME280;36921;49.006;9.292;2023-02-21T13:35:05;98856.28;;;28.24;29.73
50933;BME280;36921;49.006;9.292;2023-02-21T13:37:33;98860.75;;;28.03;29.95
50933;BME280;36921;49.006;9.292;2023-02-21T13:40:17;98850.84;;;28.19;29.48
50933;BME280;36921;49.006;9.292;2023-02-21T13:42:45;98837.44;;;28.92;29.21
50933;BME280;36921;49.006;9.292;2023-02-21T13:45:17;98833.28;;;29.56;29.61
50933;BME280;36921;49.006;9.292;2023-02-21T13:53:22;98825.91;;;29.77;28.47
50933;BME280;36921;49.006;9.292;2023-02-21T13:58:30;98835.16;;;28.14;29.79
50933;BME280;36921;49.006;9.292;2023-02-21T14:01:13;98823.13;;;27.60;29.81
50933;BME280;36921;49.006;9.292;2023-02-21T14:03:39;98818.56;;;27.42;30.34
50933;BME280;36921;49.006;9.292;2023-02-21T14:16:25;98795.44;;;30.28;28.94
50933;BME280;36921;49.006;9.292;2023-02-21T14:18:58;98792.38;;;30.03;29.18
50933;BME280;36921;49.006;9.292;2023-02-21T14:21:42;98794.81;;;30.05;28.40
50933;BME280;36921;49.006;9.292;2023-02-21T14:24:20;98791.97;;;29.66;28.14
50933;BME280;36921;49.006;9.292;2023-02-21T14:26:58;98791.97;;;28.57;29.61
50933;BME280;36921;49.006;9.292;2023-02-21T14:29:40;98802.94;;;27.91;29.81
50933;BME280;36921;49.006;9.292;2023-02-21T14:39:55;98775.78;;;28.68;30.26
50933;BME280;36921;49.006;9.292;2023-02-21T14:42:47;98781.88;;;28.87;30.23
50933;BME280;36921;49.006;9.292;2023-02-21T14:45:26;98769.06;;;28.69;30.61
50933;BME280;36921;49.006;9.292;2023-02-21T14:50:45;98769.75;;;27.94;31.26
50933;BME280;36921;49.006;9.292;2023-02-21T14:53:55;98758.97;;;26.48;31.37
50933;BME280;36921;49.006;9.292;2023-02-21T15:01:39;98767.22;;;26.53;33.01
50933;BME280;36921;49.006;9.292;2023-02-21T15:04:14;98765.22;;;26.12;33.42
50933;BME280;36921;49.006;9.292;2023-02-21T15:06:44;98751.75;;;25.58;34.10
50933;BME280;36921;49.006;9.292;2023-02-21T15:09:17;98760.00;;;26.24;33.78
50933;BME280;36921;49.006;9.292;2023-02-21T15:11:43;98749.84;;;25.73;33.70
50933;BME280;36921;49.006;9.292;2023-02-21T15:14:22;98757.97;;;24.56;35.23
50933;BME280;36921;49.006;9.292;2023-02-21T15:16:57;98743.63;;;24.54;35.35
50933;BME280;36921;49.006;9.292;2023-02-21T15:27:22;98736.00;;;24.64;35.95
50933;BME280;36921;49.006;9.292;2023-02-21T15:30:24;98744.91;;;24.61;36.24
50933;BME280;36921;49.006;9.292;2023-02-21T15:32:59;98723.03;;;23.93;36.84
50933;BME280;36921;49.006;9.292;2023-02-21T15:35:31;98733.84;;;24.61;36.09
50933;BME280;36921;49.006;9.292;2023-02-21T15:37:58;98737.88;;;24.50;36.32
50933;BME280;36921;49.006;9.292;2023-02-21T15:40:26;98724.59;;;24.23;36.29
50933;BME280;36921;49.006;9.292;2023-02-21T15:42:53;98730.97;;;23.70;37.72
50933;BME280;36921;49.006;9.292;2023-02-21T15:45:42;98731.13;;;23.84;37.69